Time;durP1;ratioP1;P1;durP2;ratioP2;P2;SDS_P1;SDS_P2;PMS_P1;PMS_P2;Temp;Humidity;BMP_temperature;BMP_pressure;BME280_temperature;BME280_humidity;BME280_pressure;Samples;Min_cycle;Max_cycle;Signal;HPM_P1;HPM_P2
2022/04/18 00:01:37;;;;;;;24.17;12.35;;;;;;;7.69;63.58;101840.88;5063901;28;20044;-67
2022/04/18 00:04:03;;;;;;;22.85;12.35;;;;;;;7.48;63.61;101841.97;5062579;28;20556;-67
2022/04/18 00:06:28;;;;;;;22.88;12.57;;;;;;;7.32;63.87;101840.56;5063068;28;20526;-68
2022/04/18 00:08:54;;;;;;;23.45;12.45;;;;;;;7.34;63.86;101832.72;5063804;28;20471;-66
2022/04/18 00:11:20;;;;;;;23.80;11.60;;;;;;;7.25;61.68;101842.94;5061846;28;20028;-66
2022/04/18 00:13:45;;;;;;;23.05;11.90;;;;;;;7.20;61.87;101832.25;5064830;28;20021;-66
2022/04/18 00:16:10;;;;;;;22.83;12.00;;;;;;;7.18;61.93;101831.31;5061298;28;20428;-66
2022/04/18 00:18:35;;;;;;;22.42;11.38;;;;;;;7.31;62.49;101833.53;5063730;28;20032;-66
2022/04/18 00:21:01;;;;;;;22.27;11.15;;;;;;;7.15;60.43;101825.97;5062547;28;20067;-66
2022/04/18 00:23:26;;;;;;;22.20;11.65;;;;;;;7.23;62.18;101831.47;5062555;28;20079;-66
2022/04/18 00:25:51;;;;;;;21.90;11.57;;;;;;;7.12;64.69;101828.47;5063877;28;20056;-66
2022/04/18 00:28:17;;;;;;;22.77;11.52;;;;;;;7.15;63.90;101829.47;5061108;28;20099;-66
2022/04/18 00:30:42;;;;;;;22.63;11.68;;;;;;;7.13;63.20;101832.88;5064604;28;20104;-66
2022/04/18 00:33:09;;;;;;;22.33;11.50;;;;;;;7.14;62.20;101830.31;5061252;28;20536;-66
2022/04/18 00:35:35;;;;;;;23.17;11.98;;;;;;;7.08;63.96;101837.13;5063549;28;20371;-66
2022/04/18 00:38:01;;;;;;;22.35;11.77;;;;;;;6.97;62.82;101836.72;5062746;28;20029;-66
2022/04/18 00:40:26;;;;;;;22.90;11.02;;;;;;;6.94;62.36;101834.00;5062105;28;20443;-66
2022/04/18 00:42:51;;;;;;;22.85;11.60;;;;;;;6.80;61.98;101834.41;5063458;28;20028;-66
2022/04/18 00:45:17;;;;;;;24.17;10.70;;;;;;;6.89;60.12;101832.94;5061056;28;20025;-66
2022/04/18 00:47:42;;;;;;;22.23;11.18;;;;;;;6.82;61.77;101847.59;5064187;28;20031;-66
2022/04/18 00:50:08;;;;;;;20.98;9.68;;;;;;;6.74;60.23;101828.03;5061323;28;20025;-66
2022/04/18 00:52:37;;;;;;;21.98;11.30;;;;;;;6.73;62.54;101836.75;5063623;28;20056;-66
2022/04/18 00:55:03;;;;;;;22.13;11.02;;;;;;;6.74;60.84;101834.19;5062076;28;20402;-66
2022/04/18 00:57:29;;;;;;;22.33;11.10;;;;;;;6.72;62.29;101833.22;5062673;28;20025;-66
2022/04/18 00:59:54;;;;;;;22.33;11.35;;;;;;;6.72;63.62;101827.97;5063341;28;20028;-66
2022/04/18 01:02:20;;;;;;;22.13;10.85;;;;;;;6.66;60.04;101832.13;5061115;28;20021;-66
2022/04/18 01:04:45;;;;;;;23.02;11.27;;;;;;;6.63;62.23;101831.16;5068573;28;20039;-66
2022/04/18 01:07:12;;;;;;;22.10;11.20;;;;;;;6.60;63.33;101831.06;5064883;28;20025;-66
2022/04/18 01:09:38;;;;;;;22.70;10.88;;;;;;;6.51;63.28;101827.19;5067285;28;20111;-66
2022/04/18 01:12:04;;;;;;;21.33;10.68;;;;;;;6.54;64.11;101820.31;5065894;28;20028;-66
2022/04/18 01:14:29;;;;;;;22.02;10.95;;;;;;;6.45;64.15;101817.34;5066312;28;20436;-66
2022/04/18 01:16:54;;;;;;;22.92;10.80;;;;;;;6.41;61.32;101825.97;5066885;28;20033;-66
2022/04/18 01:19:20;;;;;;;22.58;10.60;;;;;;;6.41;63.63;101820.72;5064914;28;20028;-67
2022/04/18 01:21:45;;;;;;;22.58;10.20;;;;;;;6.42;61.45;101820.78;5067991;28;20040;-66
2022/04/18 01:29:39;;;;;;;21.20;9.15;;;;;;;6.36;60.61;101815.28;5064755;28;20434;-66
2022/04/18 01:32:05;;;;;;;20.33;8.80;;;;;;;6.40;58.36;101818.91;5067059;28;20028;-67
2022/04/18 01:34:31;;;;;;;20.90;8.68;;;;;;;6.44;57.84;101826.97;5065518;28;20105;-67
2022/04/18 01:36:56;;;;;;;21.20;9.60;;;;;;;6.31;60.41;101815.97;5065519;28;20521;-66
2022/04/18 01:39:22;;;;;;;20.80;9.35;;;;;;;6.28;60.68;101822.88;5066986;28;20024;-66
2022/04/18 01:41:47;;;;;;;20.90;9.20;;;;;;;6.22;62.34;101812.16;5063916;28;20464;-66
2022/04/18 01:44:12;;;;;;;20.80;9.60;;;;;;;6.24;63.02;101818.34;5067462;28;20459;-67
2022/04/18 01:46:38;;;;;;;21.75;9.98;;;;;;;6.11;63.82;101819.59;5064275;28;20052;-67
2022/04/18 01:49:03;;;;;;;19.95;8.50;;;;;;;6.08;61.38;101824.75;5066220;28;20024;-67
2022/04/18 01:51:28;;;;;;;20.25;8.50;;;;;;;6.06;60.59;101826.44;5064559;28;20028;-67
2022/04/18 01:53:54;;;;;;;22.27;9.93;;;;;;;5.99;63.50;101818.25;5064834;28;20025;-67
2022/04/18 01:56:19;;;;;;;22.40;9.02;;;;;;;5.87;63.70;101810.78;5066816;28;20031;-67
2022/04/18 01:58:44;;;;;;;21.55;8.68;;;;;;;5.80;62.74;101814.00;5063851;28;20074;-64
2022/04/18 02:01:10;;;;;;;21.80;9.10;;;;;;;5.81;63.39;101814.06;5064982;28;20047;-65
2022/04/18 02:03:40;;;;;;;21.02;8.68;;;;;;;5.71;62.82;101801.41;5064567;28;20052;-68
2022/04/18 02:06:05;;;;;;;20.20;8.48;;;;;;;5.73;62.30;101804.97;5066105;28;20495;-65
2022/04/18 02:08:30;;;;;;;20.58;8.13;;;;;;;5.75;61.03;101801.59;5065006;28;20029;-66
2022/04/18 02:10:56;;;;;;;21.00;8.07;;;;;;;5.85;59.74;101805.44;5064575;28;20024;-66
2022/04/18 02:13:21;;;;;;;20.10;7.65;;;;;;;5.84;61.19;101803.69;5066483;28;20027;-66
2022/04/18 02:15:46;;;;;;;21.00;8.45;;;;;;;5.75;61.90;101801.59;5062694;28;20079;-66
2022/04/18 02:18:12;;;;;;;20.90;8.02;;;;;;;5.66;61.93;101797.69;5066467;28;20021;-66
2022/04/18 02:20:37;;;;;;;21.00;8.52;;;;;;;5.74;63.33;101797.16;5064282;28;20032;-66
2022/04/18 02:23:03;;;;;;;20.20;8.35;;;;;;;5.70;62.68;101794.38;5065201;28;20387;-66
2022/04/18 02:25:28;;;;;;;20.67;7.95;;;;;;;5.68;62.36;101796.00;5065345;28;20028;-66
2022/04/18 02:27:54;;;;;;;20.80;8.60;;;;;;;5.68;63.25;101803.88;5064229;28;20021;-66
2022/04/18 02:30:19;;;;;;;19.75;8.30;;;;;;;5.64;63.50;101802.00;5066556;28;20032;-66
2022/04/18 02:32:48;;;;;;;19.38;7.95;;;;;;;5.67;63.76;101791.63;5063155;28;20060;-65
2022/04/18 02:35:24;;;;;;;21.35;8.68;;;;;;;5.54;66.45;101792.84;5063213;28;20074;-66
2022/04/18 02:37:50;;;;;;;19.92;8.10;;;;;;;5.53;63.24;101791.97;5063120;28;20503;-66
2022/04/18 02:40:15;;;;;;;20.92;8.50;;;;;;;5.48;64.97;101793.50;5066339;28;20025;-66
2022/04/18 02:42:42;;;;;;;20.83;8.60;;;;;;;5.45;66.70;101788.13;5063331;28;20021;-66
2022/04/18 02:45:09;;;;;;;20.17;8.65;;;;;;;5.40;67.46;101779.19;5065604;28;20032;-66
2022/04/18 02:47:34;;;;;;;19.60;8.10;;;;;;;5.27;67.52;101782.13;5063757;28;20024;-65
2022/04/18 02:50:00;;;;;;;20.60;8.70;;;;;;;5.26;67.04;101777.72;5064639;28;20093;-65
2022/04/18 02:52:25;;;;;;;21.85;8.55;;;;;;;5.06;66.55;101783.03;5065305;28;20066;-65
2022/04/18 02:54:51;;;;;;;20.45;8.50;;;;;;;4.94;67.83;101782.53;5062951;28;20024;-65
2022/04/18 02:57:16;;;;;;;21.25;8.25;;;;;;;4.91;68.73;101775.44;5066166;28;20025;-65
2022/04/18 02:59:41;;;;;;;20.08;8.02;;;;;;;4.78;68.65;101771.41;5062797;28;20025;-65
2022/04/18 03:02:07;;;;;;;20.70;7.80;;;;;;;4.68;68.84;101764.84;5065064;28;20033;-65
2022/04/18 03:04:33;;;;;;;20.33;8.40;;;;;;;4.63;69.26;101762.88;5064052;28;20028;-65
2022/04/18 03:06:58;;;;;;;20.05;7.88;;;;;;;4.64;68.70;101762.03;5063926;28;20394;-65
2022/04/18 03:09:24;;;;;;;19.25;8.13;;;;;;;4.56;72.75;101752.94;5065428;28;20111;-65
2022/04/18 03:11:49;;;;;;;21.92;8.10;;;;;;;4.59;73.36;101756.63;5062739;28;20024;-65
2022/04/18 03:14:15;;;;;;;19.95;8.00;;;;;;;4.58;72.15;101757.44;5065685;28;20024;-65
2022/04/18 03:16:40;;;;;;;21.00;8.00;;;;;;;4.69;73.04;101755.28;5062663;28;20025;-65
2022/04/18 03:19:05;;;;;;;20.50;8.15;;;;;;;4.65;73.40;101758.59;5064615;28;20078;-64
2022/04/18 03:21:31;;;;;;;20.52;8.25;;;;;;;4.61;72.09;101757.56;5063440;28;20467;-64
2022/04/18 03:23:56;;;;;;;20.95;8.45;;;;;;;4.53;73.87;101759.84;5063290;28;20033;-65
2022/04/18 03:26:21;;;;;;;20.52;8.48;;;;;;;4.45;74.77;101750.75;5064316;28;20020;-65
2022/04/18 03:28:47;;;;;;;19.70;7.80;;;;;;;4.34;75.81;101752.91;5060082;28;20044;-65
2022/04/18 03:31:12;;;;;;;20.25;8.40;;;;;;;4.29;75.73;101761.41;5065357;28;20024;-65
2022/04/18 03:33:38;;;;;;;20.45;8.25;;;;;;;4.32;76.47;101758.91;5062752;28;20060;-65
2022/04/18 03:41:31;;;;;;;19.45;8.02;;;;;;;4.14;76.65;101765.13;5063708;28;20051;-65
2022/04/18 03:43:57;;;;;;;21.35;8.60;;;;;;;4.14;79.76;101765.13;5063894;28;20020;-65
2022/04/18 03:46:23;;;;;;;21.55;8.77;;;;;;;4.09;79.22;101761.41;5061778;28;20045;-65
2022/04/18 03:48:48;;;;;;;20.83;8.27;;;;;;;4.05;79.43;101764.72;5065458;28;20032;-65
2022/04/18 03:51:13;;;;;;;20.50;8.40;;;;;;;4.03;80.32;101758.50;5061497;28;20025;-65
2022/04/18 03:53:39;;;;;;;21.00;9.57;;;;;;;3.97;79.63;101758.22;5064394;28;20490;-65
2022/04/18 03:56:04;;;;;;;22.55;10.00;;;;;;;3.93;80.74;101756.28;5062914;28;20024;-64
2022/04/18 03:58:29;;;;;;;21.75;10.20;;;;;;;3.90;80.72;101757.03;5062949;28;20112;-64
2022/04/18 04:00:55;;;;;;;21.38;9.45;;;;;;;3.89;79.98;101751.72;5063689;28;20031;-65
2022/04/18 04:03:20;;;;;;;21.70;9.40;;;;;;;3.83;80.00;101757.59;5061647;28;20032;-65
2022/04/18 04:05:45;;;;;;;22.48;9.15;;;;;;;3.74;80.32;101747.59;5064674;28;20032;-65
2022/04/18 04:08:11;;;;;;;23.13;9.90;;;;;;;3.66;81.59;101751.56;5061574;28;20036;-64
2022/04/18 04:10:36;;;;;;;25.08;9.68;;;;;;;3.55;83.27;101758.00;5063776;28;20025;-64
2022/04/18 04:13:02;;;;;;;22.00;9.15;;;;;;;3.51;84.38;101753.44;5061719;28;20029;-65
2022/04/18 04:15:27;;;;;;;21.73;9.82;;;;;;;3.58;85.09;101755.53;5062511;28;20025;-65
2022/04/18 04:17:52;;;;;;;21.55;9.07;;;;;;;3.63;84.73;101751.44;5062967;28;20021;-65
2022/04/18 04:20:19;;;;;;;22.65;9.27;;;;;;;3.58;85.32;101750.31;5061081;28;20394;-65
2022/04/18 04:22:48;;;;;;;23.40;9.90;;;;;;;3.54;85.07;101748.34;5061417;28;20029;-65
2022/04/18 04:25:16;;;;;;;22.48;9.13;;;;;;;3.58;84.21;101751.22;5061058;28;20017;-64
2022/04/18 04:27:42;;;;;;;21.80;9.52;;;;;;;3.55;85.07;101750.16;5064162;28;20028;-66
2022/04/18 04:30:07;;;;;;;21.95;9.30;;;;;;;3.44;85.48;101747.03;5062306;28;20029;-65
2022/04/18 04:32:33;;;;;;;24.15;9.48;;;;;;;3.31;85.58;101748.16;5062970;28;20032;-65
2022/04/18 04:34:58;;;;;;;22.20;9.38;;;;;;;3.26;86.87;101758.41;5062973;28;20029;-67
2022/04/18 04:37:23;;;;;;;23.67;10.18;;;;;;;3.29;88.86;101755.03;5061582;28;20112;-65
2022/04/18 04:39:49;;;;;;;22.05;9.68;;;;;;;3.37;88.26;101753.69;5064563;28;20048;-67
2022/04/18 04:42:15;;;;;;;23.40;10.10;;;;;;;3.39;88.51;101757.25;5060801;28;20460;-65
2022/04/18 04:44:40;;;;;;;22.25;9.68;;;;;;;3.47;88.27;101762.88;5063824;28;20074;-66
2022/04/18 04:47:05;;;;;;;20.92;9.60;;;;;;;3.48;88.66;101755.09;5061656;28;20046;-66
2022/04/18 04:49:31;;;;;;;24.02;9.85;;;;;;;3.39;88.82;101754.66;5062310;28;20029;-68
2022/04/18 04:51:56;;;;;;;21.55;9.75;;;;;;;3.42;87.92;101754.81;5063414;28;20059;-68
2022/04/18 04:54:22;;;;;;;23.05;10.10;;;;;;;3.35;87.35;101760.56;5060980;28;20033;-68
2022/04/18 04:56:48;;;;;;;22.67;10.63;;;;;;;3.28;88.58;101761.09;5064300;28;20029;-66
2022/04/18 04:59:13;;;;;;;24.30;10.75;;;;;;;3.25;87.48;101759.22;5060975;28;20482;-66
2022/04/18 05:01:38;;;;;;;25.45;10.40;;;;;;;3.28;87.61;101759.38;5063217;28;20501;-66
2022/04/18 05:04:04;;;;;;;23.50;10.85;;;;;;;3.17;87.88;101760.56;5062151;28;20021;-66
2022/04/18 05:06:29;;;;;;;23.23;10.65;;;;;;;3.28;88.38;101767.22;5062175;28;20391;-67
2022/04/18 05:08:55;;;;;;;23.27;11.05;;;;;;;3.24;88.58;101764.38;5063272;28;20033;-66
2022/04/18 05:11:20;;;;;;;24.10;11.07;;;;;;;3.31;89.08;101772.59;5061140;28;20036;-67
2022/04/18 05:13:46;;;;;;;23.63;10.50;;;;;;;3.43;89.01;101763.53;5064022;28;20110;-67
2022/04/18 05:16:11;;;;;;;21.98;10.68;;;;;;;3.54;88.74;101757.13;5059511;28;20082;-66
2022/04/18 05:18:37;;;;;;;21.83;9.90;;;;;;;3.69;87.77;101759.56;5062887;28;20028;-66
2022/04/18 05:21:02;;;;;;;21.75;9.90;;;;;;;3.75;86.88;101762.44;5062023;28;20119;-67
2022/04/18 05:23:27;;;;;;;22.90;10.45;;;;;;;3.82;86.52;101761.91;5061792;28;20033;-67
2022/04/18 05:25:53;;;;;;;23.77;10.88;;;;;;;3.86;87.67;101762.97;5063674;28;20024;-65
2022/04/18 05:28:18;;;;;;;23.25;10.40;;;;;;;3.92;86.20;101767.59;5060535;28;20083;-65
2022/04/18 05:30:44;;;;;;;22.52;9.50;;;;;;;4.00;85.84;101771.44;5063792;28;20099;-65
2022/04/18 05:33:09;;;;;;;21.67;9.30;;;;;;;4.12;85.40;101764.16;5061323;28;20116;-65
2022/04/18 05:35:35;;;;;;;20.73;9.23;;;;;;;4.23;84.96;101779.44;5062210;28;20414;-65
2022/04/18 05:38:00;;;;;;;21.40;8.80;;;;;;;4.28;84.26;101775.31;5062164;28;20082;-65
2022/04/18 05:40:25;;;;;;;22.13;9.05;;;;;;;4.38;83.47;101768.75;5061222;28;20028;-65
2022/04/18 05:42:54;;;;;;;21.10;8.70;;;;;;;4.58;82.19;101777.50;5063409;28;20017;-65
2022/04/18 05:45:19;;;;;;;20.90;8.82;;;;;;;4.81;79.96;101773.25;5060102;28;20502;-65
2022/04/18 05:47:44;;;;;;;21.52;8.80;;;;;;;4.95;79.65;101779.97;5060836;28;20155;-65
2022/04/18 05:50:10;;;;;;;21.92;9.00;;;;;;;5.09;79.54;101770.06;5064224;28;20032;-65
2022/04/18 05:52:35;;;;;;;20.20;7.88;;;;;;;5.29;76.03;101776.13;5065686;28;20029;-65
2022/04/18 05:55:00;;;;;;;21.02;8.40;;;;;;;5.51;78.46;101772.63;5065200;28;20021;-65
2022/04/18 05:57:26;;;;;;;18.67;7.60;;;;;;;5.71;73.71;101772.53;5066607;28;20095;-65
2022/04/18 05:59:51;;;;;;;20.58;8.10;;;;;;;5.84;74.70;101779.13;5064077;28;20429;-65
2022/04/18 06:02:16;;;;;;;20.85;8.05;;;;;;;5.89;75.46;101775.88;5066189;28;20161;-65
2022/04/18 06:04:42;;;;;;;20.05;7.80;;;;;;;6.02;73.19;101787.75;5064222;28;20479;-65
2022/04/18 06:07:07;;;;;;;20.80;7.72;;;;;;;6.15;70.14;101781.25;5066246;28;20028;-65
2022/04/18 06:09:33;;;;;;;19.42;7.50;;;;;;;6.32;68.24;101779.25;5064971;28;20591;-65
2022/04/18 06:11:58;;;;;;;18.77;7.70;;;;;;;6.47;68.05;101780.66;5064537;28;20064;-65
2022/04/18 06:14:24;;;;;;;20.58;7.60;;;;;;;6.56;69.30;101778.34;5066599;28;20074;-65
2022/04/18 06:16:49;;;;;;;20.67;8.02;;;;;;;6.68;70.07;101785.75;5063205;28;20061;-65
2022/04/18 06:19:14;;;;;;;18.30;7.28;;;;;;;6.83;65.99;101780.16;5066608;28;20024;-65
2022/04/18 06:21:40;;;;;;;20.25;7.57;;;;;;;6.99;66.04;101785.09;5063857;28;20106;-65
2022/04/18 06:24:05;;;;;;;19.70;7.50;;;;;;;7.15;65.52;101786.53;5065520;28;20384;-65
2022/04/18 06:26:31;;;;;;;19.52;6.90;;;;;;;7.26;63.23;101782.47;5065705;28;20016;-65
2022/04/18 06:28:59;;;;;;;17.90;6.65;;;;;;;7.39;60.17;101777.63;5063901;28;20113;-65
2022/04/18 06:31:24;;;;;;;21.17;7.15;;;;;;;7.54;61.96;101778.09;5066127;28;20482;-65
2022/04/18 06:33:50;;;;;;;18.30;6.88;;;;;;;7.65;60.61;101774.06;5063225;28;20036;-65
2022/04/18 06:36:16;;;;;;;19.80;6.95;;;;;;;7.82;59.88;101784.22;5062925;28;20021;-65
2022/04/18 06:38:41;;;;;;;20.30;6.90;;;;;;;7.94;58.58;101779.34;5065651;28;20028;-65
2022/04/18 06:41:08;;;;;;;18.77;6.60;;;;;;;8.04;57.71;101775.25;5064236;28;20028;-65
2022/04/18 06:43:33;;;;;;;19.33;6.10;;;;;;;8.19;54.98;101772.16;5064582;28;20036;-66
2022/04/18 06:45:59;;;;;;;18.33;6.20;;;;;;;8.30;55.36;101775.09;5064766;28;20048;-66
2022/04/18 06:48:24;;;;;;;17.80;6.30;;;;;;;8.43;54.84;101778.97;5063426;28;20029;-66
2022/04/18 06:50:50;;;;;;;19.02;6.60;;;;;;;8.54;53.33;101772.31;5066132;28;20024;-66
2022/04/18 06:53:15;;;;;;;18.00;6.20;;;;;;;8.71;54.32;101781.56;5062619;28;20243;-66
2022/04/18 06:58:26;;;;;;;17.70;5.80;;;;;;;9.02;52.82;101778.84;5063529;28;20048;-66
2022/04/18 07:00:51;;;;;;;19.00;6.20;;;;;;;9.08;52.71;101776.34;5065568;28;20032;-66
2022/04/18 07:03:17;;;;;;;17.70;5.97;;;;;;;9.12;52.87;101782.63;5062623;28;20375;-66
2022/04/18 07:05:42;;;;;;;16.25;5.30;;;;;;;9.27;48.93;101782.09;5065318;28;20079;-66
2022/04/18 07:08:08;;;;;;;17.92;5.80;;;;;;;9.40;48.57;101782.41;5063696;28;20025;-65
2022/04/18 07:10:34;;;;;;;17.30;5.50;;;;;;;9.56;48.86;101780.16;5064141;28;20025;-65
2022/04/18 07:12:59;;;;;;;17.80;5.55;;;;;;;9.66;49.31;101776.00;5064870;28;20016;-65
2022/04/18 07:15:25;;;;;;;16.90;5.65;;;;;;;9.77;46.71;101778.00;5062966;28;20021;-65
2022/04/18 07:17:51;;;;;;;15.45;5.30;;;;;;;9.89;47.76;101776.50;5066047;28;20024;-65
2022/04/18 07:20:16;;;;;;;16.77;5.20;;;;;;;9.98;47.37;101783.75;5061989;28;20357;-65
2022/04/18 07:22:41;;;;;;;16.75;5.68;;;;;;;10.15;45.79;101778.78;5064635;28;20070;-65
2022/04/18 07:25:08;;;;;;;16.17;5.47;;;;;;;10.26;44.41;101780.78;5063694;28;20013;-65
2022/04/18 07:27:34;;;;;;;14.75;5.15;;;;;;;10.33;46.36;101776.53;5063984;28;20119;-65
2022/04/18 07:29:59;;;;;;;17.13;5.13;;;;;;;10.42;44.82;101770.59;5064008;28;20364;-65
2022/04/18 07:32:25;;;;;;;15.52;5.20;;;;;;;10.55;43.87;101766.44;5062688;28;20074;-65
2022/04/18 07:34:50;;;;;;;16.60;5.13;;;;;;;10.61;44.15;101762.13;5065472;28;20447;-65
2022/04/18 07:37:15;;;;;;;14.70;5.00;;;;;;;10.74;45.06;101752.66;5061607;28;20025;-65
2022/04/18 07:39:41;;;;;;;15.13;4.85;;;;;;;10.87;42.67;101752.91;5064514;28;20383;-66
2022/04/18 07:42:06;;;;;;;14.60;4.70;;;;;;;11.03;42.77;101762.88;5063038;28;20025;-65
2022/04/18 07:44:32;;;;;;;17.98;5.00;;;;;;;11.18;42.20;101758.72;5062974;28;20515;-65
2022/04/18 07:46:58;;;;;;;16.17;4.75;;;;;;;11.30;42.66;101751.88;5063972;28;20044;-65
2022/04/18 07:49:24;;;;;;;17.35;5.10;;;;;;;11.48;41.49;101759.19;5061797;28;20476;-66
2022/04/18 07:51:49;;;;;;;15.05;4.40;;;;;;;11.65;40.40;101751.50;5064844;28;20028;-65
2022/04/18 07:54:17;;;;;;;15.57;4.88;;;;;;;11.81;40.83;101747.31;5061524;28;20036;-65
2022/04/18 07:56:46;;;;;;;15.32;4.85;;;;;;;11.95;40.35;101746.63;5064196;28;20031;-65
2022/04/18 07:59:12;;;;;;;17.40;5.40;;;;;;;12.07;41.04;101744.13;5061942;28;20112;-65
2022/04/18 08:01:37;;;;;;;16.90;5.10;;;;;;;12.48;41.31;101742.81;5063451;28;20120;-65
2022/04/18 08:04:04;;;;;;;15.48;5.10;;;;;;;12.80;38.29;101748.47;5063493;28;20020;-65
2022/04/18 08:06:31;;;;;;;16.27;5.30;;;;;;;13.03;38.98;101751.34;5062205;28;20025;-65
2022/04/18 08:08:56;;;;;;;17.23;5.53;;;;;;;13.37;37.96;101741.00;5063926;28;20024;-65
2022/04/18 08:11:21;;;;;;;16.90;5.20;;;;;;;13.61;36.96;101744.69;5061041;28;20129;-66
2022/04/18 08:13:49;;;;;;;18.70;5.50;;;;;;;13.96;36.83;101754.63;5064242;28;20036;-67
2022/04/18 08:16:15;;;;;;;18.20;5.65;;;;;;;14.13;35.91;101749.41;5061398;28;20132;-67
2022/04/18 08:18:44;;;;;;;16.48;5.30;;;;;;;14.37;36.72;101761.00;5063515;28;20033;-67
2022/04/18 08:21:11;;;;;;;14.82;5.00;;;;;;;14.49;35.01;101747.75;5061808;28;20025;-66
2022/04/18 08:23:36;;;;;;;15.65;5.18;;;;;;;14.70;34.61;101751.38;5062985;28;20025;-66
2022/04/18 08:26:03;;;;;;;14.52;4.95;;;;;;;14.97;32.90;101756.72;5062862;28;20096;-67
2022/04/18 08:28:28;;;;;;;14.13;4.43;;;;;;;14.88;35.39;101753.16;5062196;28;20035;-67
2022/04/18 08:30:54;;;;;;;15.73;4.68;;;;;;;14.96;32.78;101757.59;5064201;28;20439;-67
2022/04/18 08:33:20;;;;;;;11.90;4.00;;;;;;;15.21;33.60;101754.06;5060773;28;20035;-67
2022/04/18 08:35:46;;;;;;;13.63;3.90;;;;;;;15.28;31.77;101748.72;5064143;28;20379;-66
2022/04/18 08:38:11;;;;;;;11.55;4.10;;;;;;;15.36;31.72;101753.16;5061422;28;20117;-67
2022/04/18 08:40:37;;;;;;;13.40;4.20;;;;;;;15.47;31.86;101754.03;5062928;28;20540;-67
2022/04/18 08:43:03;;;;;;;11.77;4.00;;;;;;;15.78;30.98;101745.97;5061583;28;20043;-66
2022/04/18 08:45:28;;;;;;;14.25;4.30;;;;;;;16.25;31.48;101754.69;5061681;28;20119;-67
2022/04/18 08:53:27;;;;;;;12.70;4.22;;;;;;;17.23;30.20;101753.19;5061081;28;20100;-67
2022/04/18 08:55:54;;;;;;;14.05;4.30;;;;;;;17.85;27.48;101757.91;5064365;28;20020;-66
2022/04/18 08:58:23;;;;;;;12.80;4.13;;;;;;;17.50;28.52;101754.69;5060643;28;20067;-67
2022/04/18 09:00:50;;;;;;;15.27;4.18;;;;;;;17.81;27.76;101759.72;5060435;28;20471;-66
2022/04/18 09:03:16;;;;;;;12.43;4.15;;;;;;;18.16;28.28;101755.78;5063859;28;20085;-67
2022/04/18 09:05:41;;;;;;;14.00;4.10;;;;;;;18.56;26.50;101751.66;5061472;28;20035;-67
2022/04/18 09:08:10;;;;;;;13.75;4.38;;;;;;;18.71;27.86;101746.09;5062474;28;20028;-66
2022/04/18 09:10:36;;;;;;;13.02;4.35;;;;;;;18.90;25.86;101749.41;5062696;28;20372;-66
2022/04/18 09:13:07;;;;;;;14.32;4.30;;;;;;;18.56;27.08;101746.31;5061774;28;20468;-67
2022/04/18 09:15:46;;;;;;;13.27;4.10;;;;;;;18.63;26.70;101739.97;5062418;28;20029;-67
2022/04/18 09:18:17;;;;;;;13.73;3.97;;;;;;;18.58;25.97;101737.34;5061603;28;20040;-66
2022/04/18 09:20:53;;;;;;;13.25;4.10;;;;;;;17.74;27.87;101747.34;5061404;28;20040;-67
2022/04/18 09:23:34;;;;;;;12.75;4.03;;;;;;;17.37;28.21;101745.94;5060462;28;20040;-67
2022/04/18 09:26:10;;;;;;;12.55;4.30;;;;;;;17.27;28.24;101741.59;5063947;28;20075;-66
2022/04/18 09:28:40;;;;;;;13.38;4.25;;;;;;;17.97;27.90;101751.53;5065512;28;20052;-66
2022/04/18 09:31:11;;;;;;;14.43;4.50;;;;;;;17.98;27.25;101746.19;5065896;28;20029;-67
2022/04/18 09:33:45;;;;;;;14.27;4.40;;;;;;;18.25;29.08;101744.06;5065715;28;20367;-67
2022/04/18 09:36:17;;;;;;;13.88;4.40;;;;;;;18.64;27.44;101739.94;5066979;28;20116;-67
2022/04/18 09:39:01;;;;;;;12.68;4.32;;;;;;;18.65;25.43;101730.09;5064544;28;20028;-67
2022/04/18 09:41:29;;;;;;;15.05;4.25;;;;;;;18.77;25.36;101735.28;5064350;28;20025;-67
2022/04/18 09:43:55;;;;;;;14.32;4.45;;;;;;;19.10;26.59;101730.28;5067056;28;20063;-66
2022/04/18 09:46:22;;;;;;;13.18;4.43;;;;;;;19.49;25.62;101733.16;5063826;28;20048;-67
2022/04/18 09:48:49;;;;;;;12.27;4.47;;;;;;;19.61;25.45;101739.22;5067147;28;20480;-66
2022/04/18 09:51:17;;;;;;;13.95;4.68;;;;;;;20.03;24.71;101725.88;5064396;28;20104;-67
2022/04/18 09:53:45;;;;;;;13.45;4.38;;;;;;;20.45;25.44;101728.53;5066469;28;20104;-69
2022/04/18 09:56:19;;;;;;;17.33;4.70;;;;;;;21.05;24.34;101723.56;5064802;28;20024;-67
2022/04/18 09:58:44;;;;;;;14.30;4.43;;;;;;;21.53;22.35;101717.81;5066374;28;20025;-67
2022/04/18 10:01:11;;;;;;;14.30;4.20;;;;;;;21.96;23.40;101723.78;5064624;28;20059;-67
2022/04/18 10:03:39;;;;;;;15.35;4.55;;;;;;;21.97;23.41;101722.84;5065747;28;20064;-66
2022/04/18 10:06:05;;;;;;;14.38;4.43;;;;;;;21.96;22.72;101714.81;5065327;28;20028;-67
2022/04/18 10:08:32;;;;;;;12.43;4.50;;;;;;;22.91;21.48;101714.53;5064744;28;20025;-67
2022/04/18 10:10:58;;;;;;;14.48;4.60;;;;;;;23.02;21.46;101710.59;5064952;28;20103;-67
2022/04/18 10:13:27;;;;;;;13.40;4.30;;;;;;;23.19;21.21;101707.38;5063458;28;20025;-67
2022/04/18 10:15:54;;;;;;;14.32;4.53;;;;;;;21.57;22.29;101707.88;5066701;28;20028;-68
2022/04/18 10:18:20;;;;;;;13.85;4.40;;;;;;;21.41;24.69;101710.94;5063500;28;20029;-67
2022/04/18 10:21:07;;;;;;;15.55;4.68;;;;;;;22.26;23.52;101713.88;5066585;28;20033;-67
2022/04/18 10:23:59;;;;;;;13.27;4.60;;;;;;;23.42;21.66;101706.56;5064481;28;20086;-67
2022/04/18 10:27:02;;;;;;;15.27;5.03;;;;;;;23.26;20.42;101707.09;5063494;28;20060;-67
2022/04/18 10:29:31;;;;;;;15.40;4.90;;;;;;;23.91;19.64;101698.47;5064107;28;20029;-67
2022/04/18 10:32:03;;;;;;;15.13;4.85;;;;;;;24.94;19.87;101688.06;5066459;28;20025;-67
2022/04/18 10:34:31;;;;;;;14.48;4.50;;;;;;;25.29;19.48;101681.09;5064011;28;20063;-67
2022/04/18 10:37:01;;;;;;;12.73;4.60;;;;;;;25.36;19.15;101690.75;5065423;28;20468;-69
2022/04/18 10:39:37;;;;;;;14.45;4.65;;;;;;;25.72;18.81;101694.56;5063600;28;20403;-67
2022/04/18 10:42:20;;;;;;;16.30;5.18;;;;;;;25.49;19.65;101695.63;5064882;28;20032;-67
2022/04/18 10:45:02;;;;;;;15.32;5.10;;;;;;;26.06;18.59;101693.03;5066162;28;20028;-68
2022/04/18 10:47:59;;;;;;;15.90;4.90;;;;;;;26.59;18.21;101685.91;5063248;28;20112;-67
2022/04/18 10:50:32;;;;;;;14.95;4.68;;;;;;;26.95;17.81;101679.63;5063401;28;20059;-67
2022/04/18 10:53:14;;;;;;;15.43;4.70;;;;;;;27.66;17.37;101678.63;5065369;28;20027;-67
2022/04/18 10:55:59;;;;;;;14.02;4.55;;;;;;;28.02;17.17;101683.03;5064835;28;20025;-67
2022/04/18 10:58:27;;;;;;;16.13;4.75;;;;;;;27.73;17.02;101679.19;5060273;28;20037;-67
2022/04/18 11:01:01;;;;;;;13.73;4.68;;;;;;;27.20;16.14;101678.34;5060248;28;20045;-69
2022/04/18 11:03:35;;;;;;;14.05;4.80;;;;;;;27.48;16.56;101675.94;5063863;28;20037;-66
2022/04/18 11:06:16;;;;;;;15.13;4.90;;;;;;;28.63;16.86;101669.59;5062850;28;20028;-66
2022/04/18 11:08:56;;;;;;;14.38;4.68;;;;;;;28.80;15.19;101672.19;5062845;28;20098;-66
2022/04/18 11:11:21;;;;;;;12.90;4.45;;;;;;;28.62;14.96;101674.16;5060036;28;20067;-66
2022/04/18 11:13:48;;;;;;;14.07;4.50;;;;;;;28.74;15.22;101666.25;5060323;28;20108;-67
2022/04/18 11:16:22;;;;;;;14.15;4.70;;;;;;;29.15;15.99;101661.00;5063013;28;20041;-66
2022/04/18 11:19:06;;;;;;;14.40;4.72;;;;;;;29.70;15.84;101661.28;5060322;28;20487;-67
2022/04/18 11:22:01;;;;;;;14.02;4.65;;;;;;;30.58;15.14;101659.19;5063393;28;20045;-66
2022/04/18 11:24:37;;;;;;;14.55;4.50;;;;;;;29.93;15.26;101661.66;5061250;28;20036;-66
2022/04/18 11:27:06;;;;;;;15.02;4.65;;;;;;;30.22;14.34;101651.59;5062247;28;20028;-66
2022/04/18 11:29:32;;;;;;;13.93;4.70;;;;;;;29.51;14.55;101648.81;5060930;28;20121;-66
2022/04/18 11:31:57;;;;;;;14.52;4.57;;;;;;;29.42;14.59;101656.69;5062649;28;20115;-67
2022/04/18 11:34:29;;;;;;;13.45;4.70;;;;;;;30.34;14.22;101647.19;5046551;28;20040;-67
2022/04/18 11:36:56;;;;;;;14.93;4.82;;;;;;;31.00;14.01;101653.63;5061857;28;20046;-67
2022/04/18 11:39:21;;;;;;;13.82;4.65;;;;;;;30.17;13.99;101640.13;5065398;28;20021;-67
2022/04/18 11:41:47;;;;;;;13.23;4.57;;;;;;;29.86;14.05;101648.44;5062401;28;20037;-67